Time;durP1;ratioP1;P1;durP2;ratioP2;P2;SDS_P1;SDS_P2;PMS_P1;PMS_P2;Temp;Humidity;BMP_temperature;BMP_pressure;BME280_temperature;BME280_humidity;BME280_pressure;Samples;Min_cycle;Max_cycle;Signal;HPM_P1;HPM_P2
2023/10/13 00:00:29;;;;;;;8.40;4.67;;;16.40;99.90;;;;;;5094668;28;23275;-79
2023/10/13 00:03:00;;;;;;;6.30;4.03;;;16.40;99.90;;;;;;5075484;28;20549;-81
2023/10/13 00:05:30;;;;;;;5.00;4.10;;;16.40;99.90;;;;;;5075047;28;20991;-81
2023/10/13 00:08:00;;;;;;;7.13;4.87;;;16.40;99.90;;;;;;5073646;28;20477;-81
2023/10/13 00:10:28;;;;;;;7.87;4.67;;;16.40;99.90;;;;;;5073895;28;20469;-80
2023/10/13 00:13:05;;;;;;;7.30;4.67;;;16.40;99.90;;;;;;5074359;28;20505;-81
2023/10/13 00:15:38;;;;;;;3.97;3.60;;;16.40;99.90;;;;;;5074327;28;20472;-84
2023/10/13 00:18:12;;;;;;;7.70;4.37;;;16.40;99.90;;;;;;5074475;28;20601;-82
2023/10/13 00:20:39;;;;;;;6.53;4.30;;;16.30;99.90;;;;;;5078586;28;20489;-83
2023/10/13 00:23:07;;;;;;;5.87;3.83;;;16.30;99.90;;;;;;5076399;28;20458;-80
2023/10/13 00:25:43;;;;;;;8.33;5.10;;;16.30;99.90;;;;;;5072550;28;20802;-79
2023/10/13 00:28:10;;;;;;;5.40;3.73;;;16.30;99.90;;;;;;5073786;28;20500;-79
2023/10/13 00:30:38;;;;;;;5.00;4.50;;;16.30;99.90;;;;;;5073447;28;20458;-84
2023/10/13 00:33:07;;;;;;;7.60;4.73;;;16.30;99.90;;;;;;5074010;28;20494;-80
2023/10/13 00:35:37;;;;;;;8.00;4.60;;;16.30;99.90;;;;;;5092788;28;21169;-81
2023/10/13 00:38:12;;;;;;;7.07;4.73;;;16.30;99.90;;;;;;5093487;28;20515;-81
2023/10/13 00:40:50;;;;;;;5.80;5.17;;;16.30;99.90;;;;;;5091888;28;20473;-84
2023/10/13 00:43:32;;;;;;;6.60;4.40;;;16.30;99.90;;;;;;5073433;28;20851;-84
2023/10/13 00:46:08;;;;;;;5.63;5.10;;;16.30;99.90;;;;;;5061249;28;20505;-84
2023/10/13 00:48:43;;;;;;;9.57;7.00;;;16.30;99.90;;;;;;5073463;28;20466;-84
2023/10/13 00:51:31;;;;;;;7.70;5.00;;;16.30;99.90;;;;;;5072692;28;20466;-84
2023/10/13 00:53:59;;;;;;;11.43;5.23;;;16.30;99.90;;;;;;5081417;28;20546;-85
2023/10/13 00:56:27;;;;;;;5.80;3.60;;;16.30;99.90;;;;;;5092449;28;20931;-83
2023/10/13 00:58:57;;;;;;;4.97;3.80;;;16.30;99.90;;;;;;5093647;28;20807;-83
2023/10/13 01:01:30;;;;;;;4.63;3.73;;;16.30;99.90;;;;;;5081028;28;20804;-83
2023/10/13 01:03:59;;;;;;;3.10;2.80;;;16.30;99.90;;;;;;5093255;28;20465;-83
2023/10/13 01:06:26;;;;;;;9.20;3.33;;;16.30;99.90;;;;;;5072617;28;20470;-84
2023/10/13 01:08:58;;;;;;;5.50;3.70;;;16.30;99.90;;;;;;5086066;28;20542;-84
2023/10/13 01:11:29;;;;;;;5.17;4.00;;;16.30;99.90;;;;;;5093141;28;20518;-84
2023/10/13 01:13:56;;;;;;;5.87;3.40;;;16.20;99.90;;;;;;5093433;28;20465;-82
2023/10/13 01:16:26;;;;;;;7.90;2.83;;;16.20;99.90;;;;;;5069837;28;20483;-82
2023/10/13 01:18:53;;;;;;;6.23;3.40;;;16.20;99.90;;;;;;5065118;28;20474;-84
2023/10/13 01:21:21;;;;;;;4.80;3.90;;;16.20;99.90;;;;;;5072774;28;20462;-85
2023/10/13 01:23:50;;;;;;;3.27;2.97;;;16.30;99.90;;;;;;5072827;28;20456;-85
2023/10/13 01:26:23;;;;;;;4.33;3.83;;;16.30;99.90;;;;;;5073091;28;20498;-84
2023/10/13 01:28:49;;;;;;;4.33;3.90;;;16.30;99.90;;;;;;5073164;28;20457;-84
2023/10/13 01:31:27;;;;;;;6.47;4.50;;;16.30;99.90;;;;;;5072591;28;20513;-84
2023/10/13 01:33:54;;;;;;;9.83;8.30;;;16.20;99.90;;;;;;5071834;28;20474;-81
2023/10/13 01:36:24;;;;;;;8.97;7.10;;;16.20;99.90;;;;;;5072387;28;20470;-84
2023/10/13 01:38:54;;;;;;;8.70;5.97;;;16.20;99.90;;;;;;5053269;28;20466;-80
2023/10/13 01:41:22;;;;;;;7.97;5.40;;;16.30;99.90;;;;;;5052246;28;20467;-84
2023/10/13 01:43:48;;;;;;;5.10;4.10;;;16.30;99.90;;;;;;5051969;28;20533;-80
2023/10/13 01:46:19;;;;;;;3.93;3.60;;;16.30;99.90;;;;;;5040928;28;20470;-80
2023/10/13 01:48:46;;;;;;;4.47;3.90;;;16.30;99.90;;;;;;5051860;28;20478;-84
2023/10/13 01:51:13;;;;;;;5.80;4.83;;;16.30;99.90;;;;;;5052466;28;20533;-84
2023/10/13 01:53:41;;;;;;;8.63;6.30;;;16.20;99.90;;;;;;5052228;28;20554;-84
2023/10/13 01:56:14;;;;;;;10.70;8.17;;;16.20;99.90;;;;;;5052288;28;20538;-80
2023/10/13 01:58:42;;;;;;;8.27;6.40;;;16.20;99.90;;;;;;5051483;28;20554;-84
2023/10/13 02:01:10;;;;;;;9.40;7.67;;;16.20;99.90;;;;;;5052870;28;20545;-81
2023/10/13 02:03:41;;;;;;;10.03;7.20;;;16.20;99.90;;;;;;5051814;28;20467;-81
2023/10/13 02:06:10;;;;;;;10.53;7.00;;;16.10;99.90;;;;;;5053370;28;20486;-82
2023/10/13 02:08:42;;;;;;;7.47;5.70;;;16.10;99.90;;;;;;5053172;28;20467;-82
2023/10/13 02:11:15;;;;;;;10.97;5.80;;;16.10;99.90;;;;;;5053619;28;20461;-83
2023/10/13 02:13:48;;;;;;;8.20;5.83;;;16.10;99.90;;;;;;5052641;28;20463;-83
2023/10/13 02:16:18;;;;;;;6.77;6.10;;;16.10;99.90;;;;;;5053225;28;20530;-80
2023/10/13 02:18:44;;;;;;;6.80;5.97;;;16.10;99.90;;;;;;5055076;28;20467;-83
2023/10/13 02:21:14;;;;;;;6.33;5.67;;;16.10;99.90;;;;;;5056486;28;20466;-81
2023/10/13 02:23:43;;;;;;;10.70;6.60;;;16.10;99.90;;;;;;5055223;28;20475;-80
2023/10/13 02:26:13;;;;;;;11.13;6.40;;;16.00;99.90;;;;;;5056300;28;20533;-80
2023/10/13 02:28:40;;;;;;;9.70;6.20;;;16.00;99.90;;;;;;5055472;28;20499;-80
2023/10/13 02:31:07;;;;;;;8.23;5.60;;;16.00;99.90;;;;;;5055774;28;20529;-79
2023/10/13 02:33:34;;;;;;;8.30;6.13;;;15.90;99.90;;;;;;5056066;28;20495;-81
2023/10/13 02:38:47;;;;;;;8.30;6.07;;;16.00;99.90;;;;;;5039346;28;20455;-80
2023/10/13 02:41:19;;;;;;;7.60;6.20;;;16.00;99.90;;;;;;5055878;28;20509;-81
2023/10/13 02:43:48;;;;;;;6.53;5.83;;;16.00;99.90;;;;;;5054089;28;20465;-84
2023/10/13 02:46:15;;;;;;;7.23;6.50;;;16.00;99.90;;;;;;5056005;28;20544;-84
2023/10/13 02:48:45;;;;;;;12.60;7.77;;;16.00;99.90;;;;;;5055969;28;20474;-85
2023/10/13 02:51:20;;;;;;;8.47;7.10;;;16.00;99.90;;;;;;5055841;28;20542;-81
2023/10/13 02:53:49;;;;;;;8.83;6.27;;;16.00;99.90;;;;;;5056127;28;20467;-84
2023/10/13 02:56:20;;;;;;;10.27;6.30;;;16.00;99.90;;;;;;5057201;28;20811;-84
2023/10/13 02:58:53;;;;;;;9.30;7.60;;;16.00;99.90;;;;;;5055968;28;20487;-84
2023/10/13 03:01:20;;;;;;;11.90;6.80;;;16.00;99.90;;;;;;5057684;28;20487;-81
2023/10/13 03:03:50;;;;;;;9.30;6.57;;;16.00;99.90;;;;;;5056864;28;20463;-84
2023/10/13 03:06:17;;;;;;;9.83;7.73;;;16.10;99.90;;;;;;5061062;28;20471;-81
2023/10/13 03:08:44;;;;;;;10.90;8.10;;;16.10;99.90;;;;;;5054919;28;20558;-81
2023/10/13 03:11:11;;;;;;;11.50;8.00;;;16.00;99.90;;;;;;5057056;28;20482;-84
2023/10/13 03:14:06;;;;;;;12.77;8.90;;;16.00;99.90;;;;;;5061858;28;20467;-81
2023/10/13 03:16:32;;;;;;;9.50;7.20;;;16.00;99.90;;;;;;5058703;28;20463;-83
2023/10/13 03:18:59;;;;;;;9.73;8.50;;;16.00;99.90;;;;;;5059885;28;20474;-84
2023/10/13 03:21:29;;;;;;;11.50;8.40;;;16.00;99.90;;;;;;5056110;28;20483;-80
2023/10/13 03:24:06;;;;;;;11.40;8.10;;;16.00;99.90;;;;;;5056082;28;20459;-84
2023/10/13 03:26:36;;;;;;;13.30;7.70;;;16.00;99.90;;;;;;5062508;28;20491;-83
2023/10/13 03:29:13;;;;;;;10.90;8.87;;;16.00;99.90;;;;;;5062933;28;20463;-84
2023/10/13 03:31:40;;;;;;;10.60;9.23;;;16.00;99.90;;;;;;5060128;28;20605;-84
2023/10/13 03:34:11;;;;;;;10.10;9.03;;;16.00;99.90;;;;;;5072265;28;20499;-83
2023/10/13 03:39:27;;;;;;;9.20;8.30;;;16.10;99.90;;;;;;5068431;28;20740;-81
2023/10/13 03:41:54;;;;;;;14.00;9.70;;;16.10;99.90;;;;;;5071666;28;20447;-84
2023/10/13 03:44:23;;;;;;;12.70;9.70;;;16.10;99.90;;;;;;5073208;28;20562;-83
2023/10/13 03:46:49;;;;;;;11.73;10.40;;;16.10;99.90;;;;;;5072243;28;21878;-83
2023/10/13 03:49:21;;;;;;;12.40;9.90;;;16.10;99.90;;;;;;5065150;28;20467;-82
2023/10/13 03:51:49;;;;;;;10.70;8.60;;;16.10;99.90;;;;;;5060807;28;20499;-81
2023/10/13 03:54:17;;;;;;;14.43;10.20;;;16.10;99.90;;;;;;5057809;28;20490;-83
2023/10/13 03:56:45;;;;;;;14.63;11.33;;;16.10;99.90;;;;;;5054356;28;20550;-83
2023/10/13 03:59:23;;;;;;;12.87;10.37;;;16.20;99.90;;;;;;5055165;28;20467;-83
2023/10/13 04:01:59;;;;;;;12.40;8.80;;;16.20;99.90;;;;;;5054398;28;20478;-83
2023/10/13 04:04:52;;;;;;;16.20;11.20;;;16.20;99.90;;;;;;5054858;28;20477;-84
2023/10/13 04:15:42;;;;;;;14.03;10.67;;;16.10;99.90;;;;;;5055257;28;20482;-80
2023/10/13 04:18:33;;;;;;;14.67;11.40;;;16.10;99.90;;;;;;5055016;28;20474;-80
2023/10/13 04:21:18;;;;;;;10.03;8.20;;;16.10;99.90;;;;;;5054913;28;20460;-82
2023/10/13 04:26:36;;;;;;;12.30;9.17;;;16.20;99.90;;;;;;5053062;28;20454;-83
2023/10/13 04:29:10;;;;;;;16.77;14.07;;;16.20;99.90;;;;;;5053715;28;20470;-81
2023/10/13 04:32:00;;;;;;;16.80;13.13;;;16.20;99.90;;;;;;5054315;28;20509;-82
2023/10/13 04:34:28;;;;;;;17.33;12.43;;;16.20;99.90;;;;;;5054333;28;20455;-83
2023/10/13 04:37:11;;;;;;;16.43;12.80;;;16.20;99.90;;;;;;5054783;28;20969;-82
2023/10/13 04:39:39;;;;;;;17.17;13.60;;;16.20;99.90;;;;;;5054635;28;20543;-82
2023/10/13 04:42:13;;;;;;;15.73;14.07;;;16.20;99.90;;;;;;5054663;28;20460;-83
2023/10/13 04:44:48;;;;;;;18.67;14.43;;;16.20;99.90;;;;;;5055882;28;20529;-80
2023/10/13 04:47:22;;;;;;;17.87;14.30;;;16.10;99.90;;;;;;5057619;28;20533;-81
2023/10/13 04:49:49;;;;;;;15.57;12.83;;;16.10;99.90;;;;;;5061133;28;21024;-80
2023/10/13 04:52:38;;;;;;;16.23;14.40;;;16.20;99.90;;;;;;5054132;28;20462;-79
2023/10/13 04:55:17;;;;;;;17.53;14.33;;;16.20;99.90;;;;;;5052673;28;20529;-80
2023/10/13 04:57:52;;;;;;;17.53;13.97;;;16.20;99.90;;;;;;5052904;28;20499;-81
2023/10/13 05:44:32;;;;;;;25.10;17.30;;;16.30;99.90;;;;;;5052532;28;20463;-83
2023/10/13 05:44:47;;;;;;;14.20;12.80;;;16.40;99.90;;;;;;5052846;28;20808;-82
2023/10/13 05:47:46;;;;;;;19.83;13.43;;;16.50;99.90;;;;;;5052721;28;20956;-82
2023/10/13 05:50:29;;;;;;;16.20;13.50;;;16.60;99.90;;;;;;5053844;28;20545;-83
2023/10/13 06:28:54;;;;;;;17.57;13.63;;;16.80;99.90;;;;;;5057975;28;20976;-83
2023/10/13 06:31:25;;;;;;;14.07;12.87;;;16.80;99.90;;;;;;5056543;28;20470;-83
2023/10/13 06:33:55;;;;;;;17.33;13.20;;;16.90;99.90;;;;;;5056545;28;20467;-80
2023/10/13 06:36:23;;;;;;;17.97;13.37;;;16.90;99.90;;;;;;5055535;28;20554;-83
2023/10/13 06:39:20;;;;;;;14.13;12.70;;;16.90;99.90;;;;;;5056321;28;20467;-83
2023/10/13 06:41:43;;;;;;;15.77;13.67;;;16.90;99.90;;;;;;5055919;28;20474;-82
2023/10/13 06:44:15;;;;;;;15.43;13.83;;;16.90;99.90;;;;;;5056135;28;20470;-83
2023/10/13 06:46:41;;;;;;;19.17;13.97;;;17.00;99.90;;;;;;5055185;28;20871;-80
2023/10/13 06:49:10;;;;;;;16.23;13.50;;;17.00;99.90;;;;;;5055742;28;20463;-81
2023/10/13 06:51:38;;;;;;;16.87;11.60;;;17.00;99.90;;;;;;5055489;28;20470;-80
2023/10/13 06:54:11;;;;;;;13.77;12.37;;;17.00;99.90;;;;;;5054606;28;20459;-80
2023/10/13 06:56:40;;;;;;;16.07;12.27;;;17.00;99.90;;;;;;5055547;28;20478;-80
2023/10/13 06:59:07;;;;;;;11.57;10.43;;;17.00;99.90;;;;;;5055062;28;20484;-83
2023/10/13 07:01:40;;;;;;;11.27;9.90;;;17.00;99.90;;;;;;5054931;28;20467;-83
2023/10/13 07:04:14;;;;;;;14.83;11.63;;;17.10;99.90;;;;;;5055047;28;20455;-83
2023/10/13 07:06:48;;;;;;;15.90;12.00;;;17.10;99.90;;;;;;5055442;28;20474;-83
2023/10/13 07:12:01;;;;;;;12.57;11.43;;;17.20;99.90;;;;;;5041800;28;20960;-83
2023/10/13 07:14:27;;;;;;;12.80;11.47;;;17.30;99.90;;;;;;5054497;28;20954;-83
2023/10/13 07:17:01;;;;;;;12.70;11.40;;;17.40;99.90;;;;;;5054965;28;20521;-83
2023/10/13 07:19:28;;;;;;;11.47;10.37;;;17.40;99.90;;;;;;5054736;28;20479;-84
2023/10/13 07:21:58;;;;;;;14.33;10.63;;;17.50;99.90;;;;;;5054076;28;20546;-82
2023/10/13 07:24:27;;;;;;;16.50;11.60;;;17.50;99.90;;;;;;5055159;28;20467;-83
2023/10/13 07:27:03;;;;;;;14.30;10.87;;;17.60;99.90;;;;;;5054540;28;20809;-84
2023/10/13 07:29:30;;;;;;;13.40;10.83;;;17.60;99.90;;;;;;5054996;28;20796;-83
2023/10/13 07:31:58;;;;;;;9.77;8.87;;;17.60;99.90;;;;;;5043584;28;20961;-83
2023/10/13 07:34:26;;;;;;;16.17;10.27;;;17.70;99.90;;;;;;5054539;28;20475;-83
2023/10/13 07:36:54;;;;;;;10.57;9.57;;;17.70;99.90;;;;;;5055057;28;20475;-83
2023/10/13 07:39:25;;;;;;;12.20;10.23;;;17.80;99.90;;;;;;5054623;28;20458;-83
2023/10/13 07:41:55;;;;;;;12.97;10.60;;;17.80;99.90;;;;;;5054989;28;20499;-83
2023/10/13 07:44:24;;;;;;;11.90;9.37;;;17.80;99.90;;;;;;5053686;28;20556;-83
2023/10/13 07:46:59;;;;;;;12.50;10.30;;;17.90;99.90;;;;;;5054805;28;20467;-79
2023/10/13 07:49:32;;;;;;;14.03;10.63;;;17.90;99.90;;;;;;5053750;28;20486;-80
2023/10/13 07:52:14;;;;;;;9.93;8.93;;;17.90;99.90;;;;;;5044775;28;20471;-79
2023/10/13 07:54:44;;;;;;;11.43;7.40;;;18.00;99.90;;;;;;5054480;28;21015;-83
2023/10/13 07:57:14;;;;;;;9.87;8.47;;;18.10;99.90;;;;;;5054359;28;20455;-84
2023/10/13 07:59:50;;;;;;;8.87;7.43;;;18.20;99.90;;;;;;5054700;28;20479;-83
2023/10/13 08:02:48;;;;;;;10.23;9.20;;;18.20;99.90;;;;;;5054452;28;20459;-83
2023/10/13 08:05:24;;;;;;;12.83;8.93;;;18.30;99.90;;;;;;5053563;28;20546;-84
2023/10/13 08:07:52;;;;;;;11.03;9.17;;;18.30;99.90;;;;;;5053620;28;20964;-79
2023/10/13 08:10:24;;;;;;;10.10;9.10;;;18.40;99.90;;;;;;5053601;28;20479;-80
2023/10/13 08:12:54;;;;;;;8.93;8.03;;;18.40;99.90;;;;;;5053204;28;20471;-83
2023/10/13 08:15:31;;;;;;;8.10;7.30;;;18.40;99.90;;;;;;5052857;28;20466;-80
2023/10/13 08:18:03;;;;;;;11.00;8.50;;;18.40;99.90;;;;;;5053387;28;20467;-80
2023/10/13 08:20:38;;;;;;;10.40;8.03;;;18.50;99.90;;;;;;5053843;28;20543;-80
2023/10/13 08:23:14;;;;;;;12.47;9.03;;;18.50;99.90;;;;;;5053773;28;20477;-80
2023/10/13 08:31:14;;;;;;;14.60;12.10;;;18.60;99.90;;;;;;5050931;28;20461;-80
2023/10/13 08:33:46;;;;;;;16.10;12.57;;;18.60;99.90;;;;;;5053578;28;20475;-79
2023/10/13 08:36:29;;;;;;;13.27;11.03;;;18.70;99.90;;;;;;5053232;28;20957;-83
2023/10/13 08:39:15;;;;;;;17.47;15.63;;;18.60;99.90;;;;;;5053288;28;20494;-79
2023/10/13 08:42:11;;;;;;;12.90;11.20;;;18.70;99.90;;;;;;5053199;28;20460;-83
2023/10/13 08:44:39;;;;;;;11.73;10.60;;;18.70;99.90;;;;;;5053828;28;20474;-84
2023/10/13 08:47:14;;;;;;;10.30;9.23;;;18.70;99.90;;;;;;5053154;28;20474;-84
2023/10/13 08:49:50;;;;;;;10.87;9.00;;;18.70;99.90;;;;;;5053507;28;20477;-84
2023/10/13 08:52:45;;;;;;;11.00;8.80;;;18.80;99.90;;;;;;5043501;28;20471;-80
2023/10/13 08:55:39;;;;;;;10.20;9.33;;;18.80;99.90;;;;;;5052480;28;20499;-84
2023/10/13 08:58:13;;;;;;;11.77;8.53;;;18.80;99.90;;;;;;5044748;28;20813;-80
2023/10/13 09:01:11;;;;;;;9.53;8.53;;;18.80;99.90;;;;;;5052681;28;20471;-79
2023/10/13 09:03:42;;;;;;;7.67;6.97;;;18.90;99.90;;;;;;5052738;28;20486;-79
2023/10/13 09:06:14;;;;;;;11.87;7.73;;;18.80;99.90;;;;;;5053370;28;20480;-80
2023/10/13 09:11:27;;;;;;;10.20;7.80;;;18.90;99.90;;;;;;5051918;28;20460;-84
2023/10/13 09:13:53;;;;;;;7.47;6.77;;;18.90;99.90;;;;;;5052922;28;20512;-83
2023/10/13 09:16:51;;;;;;;11.63;7.83;;;18.90;99.90;;;;;;5052761;28;20471;-82
2023/10/13 09:19:11;;;;;;;8.37;7.67;;;18.90;99.90;;;;;;5052453;28;20231;-85
2023/10/13 09:21:47;;;;;;;8.97;7.80;;;18.90;99.90;;;;;;5052625;28;20466;-83
2023/10/13 09:24:21;;;;;;;14.23;7.80;;;19.00;99.90;;;;;;5052129;28;20578;-79
2023/10/13 09:26:51;;;;;;;8.33;7.53;;;19.00;99.90;;;;;;5052596;28;20447;-79
2023/10/13 09:29:18;;;;;;;8.30;7.17;;;19.00;99.90;;;;;;5053545;28;20467;-83
2023/10/13 09:31:47;;;;;;;8.93;6.87;;;19.00;99.90;;;;;;5053216;28;20467;-79
2023/10/13 09:34:20;;;;;;;7.80;7.00;;;19.00;99.90;;;;;;5053115;28;20475;-84
2023/10/13 09:36:55;;;;;;;8.20;7.37;;;19.10;99.90;;;;;;5053904;28;20479;-83
2023/10/13 09:39:40;;;;;;;10.10;8.40;;;19.10;99.90;;;;;;5056249;28;20467;-84
2023/10/13 09:42:10;;;;;;;8.27;7.50;;;19.10;99.90;;;;;;5052802;28;20478;-84
2023/10/13 09:44:40;;;;;;;7.80;7.10;;;19.10;99.90;;;;;;5053089;28;20522;-83
2023/10/13 09:47:17;;;;;;;8.90;7.60;;;19.10;99.90;;;;;;5056931;28;20473;-84
2023/10/13 09:49:45;;;;;;;13.63;7.17;;;19.20;99.90;;;;;;5053932;28;20543;-84
2023/10/13 09:52:19;;;;;;;6.73;6.13;;;19.10;99.90;;;;;;5052789;28;20467;-84
2023/10/13 09:55:01;;;;;;;7.13;6.53;;;19.10;99.90;;;;;;5051799;28;20902;-84
2023/10/13 09:57:34;;;;;;;6.67;6.00;;;19.20;99.90;;;;;;5053421;28;20463;-80
2023/10/13 10:00:15;;;;;;;10.23;8.70;;;19.20;99.90;;;;;;5043153;28;20459;-81
2023/10/13 10:03:14;;;;;;;12.83;8.87;;;19.20;99.90;;;;;;5041024;28;21018;-85
2023/10/13 10:05:49;;;;;;;9.10;7.80;;;19.20;99.90;;;;;;5051992;28;20471;-81
2023/10/13 10:08:31;;;;;;;11.83;7.07;;;19.10;99.90;;;;;;5052991;28;20538;-85
2023/10/13 10:11:20;;;;;;;9.80;7.33;;;19.10;99.90;;;;;;5052496;28;20477;-85
2023/10/13 10:13:57;;;;;;;7.30;6.60;;;19.10;99.90;;;;;;5052227;28;20459;-81
2023/10/13 10:16:41;;;;;;;7.83;7.03;;;19.10;99.90;;;;;;5052300;28;20524;-84
2023/10/13 10:19:22;;;;;;;7.73;7.03;;;19.00;99.90;;;;;;5052049;28;20478;-80
2023/10/13 10:21:51;;;;;;;13.80;6.87;;;19.00;99.90;;;;;;5051692;28;20478;-85
2023/10/13 10:24:29;;;;;;;8.27;6.93;;;19.10;99.90;;;;;;5052151;28;20961;-85
2023/10/13 10:27:00;;;;;;;8.53;7.13;;;19.00;99.90;;;;;;5051261;28;20944;-84
2023/10/13 10:29:32;;;;;;;10.57;7.20;;;19.00;99.90;;;;;;5052414;28;20861;-85
2023/10/13 10:32:06;;;;;;;8.60;7.70;;;19.00;99.90;;;;;;5051666;28;20495;-81
2023/10/13 10:34:35;;;;;;;8.77;7.87;;;19.10;99.90;;;;;;5051844;28;20996;-81
2023/10/13 10:37:09;;;;;;;9.10;8.30;;;19.00;99.90;;;;;;5052741;28;20545;-81
2023/10/13 10:39:45;;;;;;;10.50;7.83;;;19.00;99.90;;;;;;5055549;28;20467;-81
2023/10/13 10:42:23;;;;;;;8.60;7.47;;;19.00;99.90;;;;;;5055466;28;20467;-80
2023/10/13 10:45:05;;;;;;;8.37;7.60;;;19.10;99.90;;;;;;5055623;28;20546;-82
2023/10/13 10:47:36;;;;;;;8.27;7.57;;;19.10;99.90;;;;;;5055640;28;20477;-85
2023/10/13 10:50:18;;;;;;;9.20;8.27;;;19.00;99.90;;;;;;5054632;28;20462;-81
2023/10/13 10:52:46;;;;;;;8.03;7.33;;;19.00;99.90;;;;;;5055856;28;20969;-81
2023/10/13 10:55:19;;;;;;;9.90;9.00;;;19.10;99.90;;;;;;5052491;28;20533;-84
2023/10/13 10:57:48;;;;;;;12.40;7.97;;;19.00;99.90;;;;;;5056194;28;20463;-79
2023/10/13 11:00:26;;;;;;;9.47;8.47;;;19.00;99.90;;;;;;5055126;28;20455;-86
2023/10/13 11:02:56;;;;;;;8.73;7.93;;;19.00;99.90;;;;;;5045422;28;20553;-81
2023/10/13 11:05:32;;;;;;;8.77;8.07;;;19.00;99.90;;;;;;5053740;28;20528;-80
2023/10/13 11:07:59;;;;;;;8.53;7.70;;;19.00;99.90;;;;;;5055896;28;20559;-84
2023/10/13 11:10:29;;;;;;;9.97;8.57;;;19.10;99.90;;;;;;5053564;28;20455;-80
2023/10/13 11:13:11;;;;;;;8.03;7.03;;;19.10;99.90;;;;;;5055329;28;20968;-80
2023/10/13 11:15:48;;;;;;;8.70;7.90;;;19.10;99.90;;;;;;5043672;28;20503;-80
2023/10/13 11:18:16;;;;;;;9.03;8.10;;;19.20;99.90;;;;;;5043170;28;20524;-84
2023/10/13 11:20:49;;;;;;;12.47;9.23;;;19.20;99.90;;;;;;5055120;28;20545;-85
2023/10/13 11:32:34;;;;;;;8.93;7.77;;;19.20;99.90;;;;;;5028474;28;20478;-85
2023/10/13 11:35:09;;;;;;;9.73;8.13;;;19.20;99.90;;;;;;5053527;28;20940;-81
2023/10/13 11:37:43;;;;;;;9.03;7.13;;;19.30;99.90;;;;;;5043964;28;20473;-81
2023/10/13 11:43:14;;;;;;;8.80;7.50;;;19.30;99.90;;;;;;5053694;28;20447;-81
2023/10/13 11:45:56;;;;;;;9.30;7.97;;;19.40;99.90;;;;;;5043649;28;20929;-85
2023/10/13 11:48:34;;;;;;;9.50;7.80;;;19.40;99.90;;;;;;5044866;28;21031;-85
2023/10/13 11:51:07;;;;;;;9.97;7.57;;;19.40;99.90;;;;;;5054166;28;20470;-84
2023/10/13 11:53:35;;;;;;;7.93;7.13;;;19.40;99.90;;;;;;5054073;28;20472;-85
2023/10/13 11:56:08;;;;;;;13.23;8.10;;;19.40;99.90;;;;;;5053756;28;20533;-84
2023/10/13 11:59:27;;;;;;;8.93;8.17;;;19.40;99.90;;;;;;5055073;28;20864;-84
2023/10/13 12:04:57;;;;;;;11.40;10.13;;;19.60;99.90;;;;;;5054678;28;20613;-84
2023/10/13 12:08:03;;;;;;;8.23;7.50;;;19.60;99.90;;;;;;5044640;28;20968;-81
2023/10/13 12:10:49;;;;;;;8.47;7.20;;;19.60;99.90;;;;;;5044409;28;20554;-80
2023/10/13 12:13:19;;;;;;;9.13;7.70;;;19.70;99.90;;;;;;5052619;28;20467;-81
2023/10/13 12:15:51;;;;;;;6.40;5.90;;;19.70;99.90;;;;;;5053160;28;20533;-80
2023/10/13 12:18:32;;;;;;;10.97;7.73;;;19.80;99.90;;;;;;5044329;28;20463;-81
2023/10/13 12:21:19;;;;;;;13.87;9.13;;;19.80;99.90;;;;;;5030367;28;20558;-81
2023/10/13 12:23:53;;;;;;;13.40;8.83;;;19.80;99.90;;;;;;5036394;28;21419;-80
2023/10/13 12:29:47;;;;;;;12.07;7.73;;;19.80;99.90;;;;;;5011771;28;20446;-85
2023/10/13 12:32:22;;;;;;;11.33;7.43;;;19.90;99.90;;;;;;5054181;28;20463;-83
2023/10/13 12:35:17;;;;;;;12.60;9.70;;;19.90;99.90;;;;;;5043803;28;20466;-84
2023/10/13 12:38:04;;;;;;;10.53;9.43;;;20.00;99.90;;;;;;5053286;28;20478;-84
2023/10/13 12:49:38;;;;;;;8.50;6.87;;;20.10;99.90;;;;;;5053351;28;20490;-83
2023/10/13 12:52:15;;;;;;;13.07;7.43;;;20.10;99.90;;;;;;5054095;28;20475;-84
2023/10/13 12:54:58;;;;;;;10.83;7.53;;;20.20;99.90;;;;;;5053330;28;20474;-85
2023/10/13 12:57:26;;;;;;;9.47;7.77;;;20.20;99.90;;;;;;5052803;28;20467;-80
2023/10/13 12:59:53;;;;;;;9.90;7.00;;;20.20;99.90;;;;;;5042748;28;20506;-84
2023/10/13 13:02:24;;;;;;;7.10;6.40;;;20.30;99.90;;;;;;5051749;28;20920;-80
2023/10/13 13:04:57;;;;;;;9.90;6.63;;;20.30;99.90;;;;;;5042617;28;20475;-81
2023/10/13 13:07:43;;;;;;;12.70;7.80;;;20.30;99.90;;;;;;5047543;28;20483;-81
2023/10/13 13:10:11;;;;;;;10.10;6.53;;;20.40;99.90;;;;;;5053084;28;20471;-84
2023/10/13 13:12:44;;;;;;;7.87;5.80;;;20.40;99.90;;;;;;5052264;28;20474;-84
2023/10/13 13:15:12;;;;;;;11.97;9.13;;;20.50;99.90;;;;;;5043257;28;20471;-80
2023/10/13 13:17:41;;;;;;;10.00;7.30;;;20.50;99.90;;;;;;5041664;28;20794;-85
2023/10/13 13:20:29;;;;;;;14.43;7.30;;;20.50;99.90;;;;;;5052201;28;20478;-85
2023/10/13 13:23:12;;;;;;;9.40;6.90;;;20.60;99.90;;;;;;5041833;28;20455;-85
2023/10/13 13:25:42;;;;;;;9.70;6.93;;;20.60;99.90;;;;;;5037309;28;20536;-81
2023/10/13 13:28:15;;;;;;;11.20;6.97;;;20.60;99.90;;;;;;5043549;28;20541;-86
2023/10/13 13:30:43;;;;;;;10.00;6.83;;;20.70;99.90;;;;;;5041093;28;20479;-84
2023/10/13 13:33:24;;;;;;;10.70;6.73;;;20.70;99.90;;;;;;5052176;28;20471;-84
2023/10/13 13:35:59;;;;;;;8.07;7.27;;;20.70;99.90;;;;;;5052396;28;20850;-85
2023/10/13 13:38:31;;;;;;;11.77;7.47;;;20.80;99.90;;;;;;5052510;28;20466;-84
2023/10/13 13:41:01;;;;;;;11.97;6.13;;;20.80;99.90;;;;;;5051395;28;20533;-85
2023/10/13 13:43:38;;;;;;;12.00;6.07;;;20.90;99.90;;;;;;5052778;28;20551;-85
2023/10/13 13:46:09;;;;;;;7.77;6.43;;;20.90;99.90;;;;;;5052556;28;20490;-84
2023/10/13 13:48:38;;;;;;;9.63;6.00;;;21.00;99.90;;;;;;5053096;28;20826;-85
2023/10/13 13:51:12;;;;;;;11.40;6.30;;;21.10;99.90;;;;;;5052106;28;20490;-83
2023/10/13 13:53:44;;;;;;;6.43;5.50;;;21.10;99.90;;;;;;5052900;28;20482;-85
2023/10/13 13:56:15;;;;;;;9.17;6.50;;;21.10;99.90;;;;;;5052803;28;20447;-86
2023/10/13 13:58:43;;;;;;;6.73;5.93;;;21.20;99.90;;;;;;5053218;28;20542;-84
2023/10/13 14:01:15;;;;;;;8.90;6.03;;;21.20;99.90;;;;;;5040882;28;20471;-80
2023/10/13 14:03:50;;;;;;;10.13;6.63;;;21.20;99.90;;;;;;5051740;28;20960;-79
2023/10/13 14:06:21;;;;;;;7.20;5.90;;;21.20;99.90;;;;;;5051706;28;20455;-81
2023/10/13 14:08:51;;;;;;;6.60;6.00;;;21.20;99.90;;;;;;5052299;28;20957;-80
2023/10/13 14:14:11;;;;;;;11.23;6.70;;;21.30;99.90;;;;;;5030385;28;20778;-83
2023/10/13 14:16:44;;;;;;;6.23;5.60;;;21.30;99.90;;;;;;5056801;28;20467;-80
2023/10/13 14:19:12;;;;;;;10.77;8.53;;;21.40;99.90;;;;;;5056081;28;20475;-80
2023/10/13 14:21:39;;;;;;;10.93;7.40;;;21.40;99.90;;;;;;5057002;28;20529;-84
2023/10/13 14:24:15;;;;;;;10.73;6.83;;;21.40;99.90;;;;;;5055644;28;20467;-80
2023/10/13 14:26:43;;;;;;;7.87;5.47;;;21.40;99.90;;;;;;5057821;28;20990;-84
2023/10/13 14:29:14;;;;;;;6.93;5.93;;;21.40;99.90;;;;;;5055007;28;20467;-85
2023/10/13 14:31:41;;;;;;;6.77;5.93;;;21.50;99.90;;;;;;5056401;28;20471;-80
2023/10/13 14:36:48;;;;;;;7.23;5.83;;;21.50;99.90;;;;;;5030697;23;20992;-80
2023/10/13 14:39:16;;;;;;;9.73;6.10;;;21.60;99.90;;;;;;4958704;29;20467;-84
2023/10/13 14:41:46;;;;;;;12.73;7.63;;;21.60;99.90;;;;;;4957666;29;20482;-84
2023/10/13 14:44:17;;;;;;;11.03;6.70;;;21.60;99.90;;;;;;4950276;29;20538;-85
2023/10/13 14:46:44;;;;;;;6.77;5.70;;;21.70;99.90;;;;;;4956442;28;20872;-80
2023/10/13 14:49:18;;;;;;;10.07;6.30;;;21.70;99.90;;;;;;4957160;28;20472;-81
2023/10/13 14:51:45;;;;;;;6.83;5.67;;;21.70;99.90;;;;;;4952656;28;20909;-83
2023/10/13 14:54:16;;;;;;;7.17;6.47;;;21.70;99.90;;;;;;4957747;28;20485;-80
2023/10/13 14:56:45;;;;;;;8.70;6.00;;;21.80;99.90;;;;;;4957526;28;21084;-83
2023/10/13 14:59:17;;;;;;;10.90;6.40;;;21.70;99.90;;;;;;4958461;28;20817;-84
2023/10/13 15:01:45;;;;;;;7.83;6.53;;;21.70;99.90;;;;;;4957008;28;20475;-82
2023/10/13 15:04:11;;;;;;;9.13;6.80;;;21.70;99.90;;;;;;4957025;28;20472;-80
2023/10/13 15:06:38;;;;;;;8.23;5.87;;;21.70;99.90;;;;;;4957214;28;20554;-80
2023/10/13 15:09:10;;;;;;;11.23;6.43;;;21.70;99.90;;;;;;4956746;28;20538;-80
2023/10/13 15:11:40;;;;;;;8.93;7.00;;;21.70;99.90;;;;;;4960441;28;21049;-80
2023/10/13 15:14:46;;;;;;;10.60;6.13;;;21.70;99.90;;;;;;4955723;28;20464;-80
2023/10/13 15:17:15;;;;;;;7.90;5.90;;;21.70;99.90;;;;;;4945501;28;20472;-80
2023/10/13 15:19:44;;;;;;;11.67;7.00;;;21.70;99.90;;;;;;4956690;28;20514;-80
2023/10/13 15:22:16;;;;;;;7.30;6.60;;;21.70;99.90;;;;;;4943589;28;20511;-80
2023/10/13 15:24:45;;;;;;;9.53;5.93;;;21.70;99.90;;;;;;4957809;28;20475;-80
2023/10/13 15:27:14;;;;;;;9.50;6.83;;;21.70;99.90;;;;;;4957880;28;20464;-84
2023/10/13 15:29:51;;;;;;;7.77;6.23;;;21.70;99.90;;;;;;4957369;28;20479;-80